Time;durP1;ratioP1;P1;durP2;ratioP2;P2;SDS_P1;SDS_P2;PMS_P1;PMS_P2;Temp;Humidity;BMP_temperature;BMP_pressure;BME280_temperature;BME280_humidity;BME280_pressure;Samples;Min_cycle;Max_cycle;Signal;HPM_P1;HPM_P2
2022/09/19 00:01:14;;;;;;;5.28;2.20;;;9.30;97.30;;;;;;5033402;28;20427;-68
2022/09/19 00:03:45;;;;;;;6.10;2.53;;;9.30;97.30;;;;;;5027496;28;20419;-68
2022/09/19 00:06:13;;;;;;;3.77;2.00;;;9.40;97.30;;;;;;5025893;28;20549;-68
2022/09/19 00:08:43;;;;;;;8.98;3.10;;;9.40;97.20;;;;;;5031404;28;20419;-68
2022/09/19 00:11:12;;;;;;;8.40;2.33;;;9.40;97.20;;;;;;5026499;28;20422;-69
2022/09/19 00:13:45;;;;;;;6.20;2.50;;;9.40;97.00;;;;;;5037780;28;20435;-69
2022/09/19 00:16:13;;;;;;;6.47;2.70;;;9.50;96.90;;;;;;5037398;28;21078;-69
2022/09/19 00:18:40;;;;;;;6.97;2.50;;;9.50;96.80;;;;;;5038811;28;20896;-68
2022/09/19 00:21:07;;;;;;;6.82;2.70;;;9.50;96.70;;;;;;5028193;28;20449;-68
2022/09/19 00:26:19;;;;;;;6.85;2.60;;;9.60;96.60;;;;;;5042774;28;20426;-69
2022/09/19 00:28:46;;;;;;;8.20;2.87;;;9.60;96.60;;;;;;5044690;28;20437;-68
2022/09/19 00:31:18;;;;;;;8.63;2.90;;;9.60;96.40;;;;;;5042264;28;20420;-68
2022/09/19 00:33:47;;;;;;;8.73;2.85;;;9.60;96.40;;;;;;5032424;28;20551;-69
2022/09/19 00:36:15;;;;;;;9.00;2.90;;;9.60;96.40;;;;;;5038025;28;20415;-69
2022/09/19 00:38:42;;;;;;;4.15;2.55;;;9.60;96.50;;;;;;5051085;28;20429;-70
2022/09/19 00:41:13;;;;;;;5.93;2.60;;;9.60;96.30;;;;;;5050517;28;20460;-68
2022/09/19 00:43:46;;;;;;;4.85;2.28;;;9.70;96.20;;;;;;5052582;28;20413;-68
2022/09/19 00:46:13;;;;;;;6.28;2.90;;;9.70;96.30;;;;;;5043226;28;20421;-71
2022/09/19 00:48:43;;;;;;;8.18;3.10;;;9.70;96.50;;;;;;5054176;28;20432;-70
2022/09/19 00:51:12;;;;;;;7.53;2.72;;;9.70;96.30;;;;;;5049847;28;20429;-70
2022/09/19 00:53:42;;;;;;;5.72;2.80;;;9.70;96.00;;;;;;5054290;28;20571;-68
2022/09/19 00:56:09;;;;;;;7.80;3.13;;;9.70;95.90;;;;;;5052095;28;20969;-69
2022/09/19 00:58:41;;;;;;;7.40;2.72;;;9.70;96.00;;;;;;5053839;28;20441;-69
2022/09/19 01:01:08;;;;;;;6.73;3.30;;;9.70;96.00;;;;;;5047500;28;20737;-70
2022/09/19 01:03:35;;;;;;;6.03;2.67;;;9.70;95.90;;;;;;5049494;28;20424;-68
2022/09/19 01:06:16;;;;;;;8.27;3.80;;;9.60;96.00;;;;;;5064872;28;20416;-69
2022/09/19 01:08:56;;;;;;;8.68;3.15;;;9.60;96.10;;;;;;5043248;28;20566;-68
2022/09/19 01:11:43;;;;;;;10.65;3.10;;;9.60;96.20;;;;;;5035500;28;20425;-68
2022/09/19 01:14:25;;;;;;;7.22;2.90;;;9.60;96.30;;;;;;5044214;28;20421;-68
2022/09/19 01:16:54;;;;;;;7.32;2.90;;;9.60;96.20;;;;;;5043779;28;20448;-69
2022/09/19 01:19:40;;;;;;;9.33;2.87;;;9.60;96.10;;;;;;5034337;28;20898;-68
2022/09/19 01:22:17;;;;;;;8.93;3.90;;;9.70;96.30;;;;;;5054712;28;20436;-70
2022/09/19 01:24:59;;;;;;;6.72;2.92;;;9.70;96.00;;;;;;5044599;28;20437;-68
2022/09/19 01:27:41;;;;;;;5.40;2.93;;;9.70;96.00;;;;;;5044368;28;20651;-71
2022/09/19 01:30:11;;;;;;;7.40;3.10;;;9.70;96.00;;;;;;5043568;28;20549;-69
2022/09/19 01:32:42;;;;;;;10.70;3.42;;;9.80;95.90;;;;;;5041833;28;20416;-68
2022/09/19 01:35:13;;;;;;;6.50;3.03;;;9.80;95.80;;;;;;5045487;28;20421;-68
2022/09/19 01:37:44;;;;;;;7.18;3.03;;;9.80;95.80;;;;;;5043788;28;20413;-68
2022/09/19 01:40:13;;;;;;;10.43;3.20;;;9.80;95.70;;;;;;5042722;28;20426;-69
2022/09/19 01:42:53;;;;;;;6.20;3.17;;;9.80;95.70;;;;;;5040908;28;20894;-68
2022/09/19 01:45:23;;;;;;;6.85;2.97;;;9.80;95.70;;;;;;5042648;28;20448;-68
2022/09/19 01:47:57;;;;;;;7.47;3.05;;;9.80;95.60;;;;;;5041374;28;20448;-68
2022/09/19 01:50:37;;;;;;;6.10;2.80;;;9.80;95.60;;;;;;5042155;28;20422;-68
2022/09/19 01:53:13;;;;;;;8.05;3.00;;;9.80;95.60;;;;;;5034076;28;20895;-68
2022/09/19 01:55:46;;;;;;;10.38;3.40;;;9.80;95.60;;;;;;5031943;28;20427;-68
2022/09/19 01:58:21;;;;;;;10.65;3.17;;;9.80;95.40;;;;;;5040189;28;20437;-69
2022/09/19 02:00:57;;;;;;;11.25;3.10;;;9.70;95.40;;;;;;5043630;28;20803;-69
2022/09/19 02:03:36;;;;;;;9.20;3.08;;;9.70;95.40;;;;;;5042951;28;20421;-68
2022/09/19 02:06:10;;;;;;;7.13;3.15;;;9.70;95.40;;;;;;5042770;28;20413;-69
2022/09/19 02:08:43;;;;;;;8.00;2.97;;;9.70;95.50;;;;;;5029076;28;20440;-68
2022/09/19 02:11:14;;;;;;;9.88;3.40;;;9.60;95.60;;;;;;5041186;28;20513;-69
2022/09/19 02:13:45;;;;;;;7.97;3.10;;;9.60;95.50;;;;;;5036518;28;20502;-68
2022/09/19 02:16:19;;;;;;;8.20;3.10;;;9.60;95.50;;;;;;5042165;28;20508;-68
2022/09/19 02:18:53;;;;;;;7.35;3.25;;;9.60;95.70;;;;;;5044092;28;20444;-69
2022/09/19 02:21:25;;;;;;;6.63;2.80;;;9.50;95.80;;;;;;5042961;28;20574;-69
2022/09/19 02:23:55;;;;;;;7.57;2.87;;;9.50;95.90;;;;;;5044848;28;20543;-68
2022/09/19 02:26:23;;;;;;;7.55;2.80;;;9.50;95.90;;;;;;5033998;28;20447;-68
2022/09/19 02:28:54;;;;;;;6.97;2.80;;;9.50;95.70;;;;;;5044315;28;20413;-69
2022/09/19 02:31:24;;;;;;;6.30;3.03;;;9.60;95.60;;;;;;5042741;28;20527;-71
2022/09/19 02:33:51;;;;;;;6.03;2.80;;;9.60;95.50;;;;;;5043474;28;20456;-68
2022/09/19 02:36:24;;;;;;;8.65;3.13;;;9.60;95.20;;;;;;5043425;28;20855;-68
2022/09/19 02:38:57;;;;;;;6.43;2.60;;;9.60;95.00;;;;;;5041678;28;20904;-68
2022/09/19 02:41:30;;;;;;;7.43;2.83;;;9.60;95.00;;;;;;5042583;28;20759;-68
2022/09/19 02:44:03;;;;;;;7.55;2.90;;;9.60;94.80;;;;;;5043531;28;20926;-68
2022/09/19 02:46:38;;;;;;;5.60;2.50;;;9.70;94.80;;;;;;5043281;28;20424;-68
2022/09/19 02:49:10;;;;;;;7.07;3.00;;;9.60;94.70;;;;;;5056291;28;20462;-68
2022/09/19 02:51:39;;;;;;;5.63;2.67;;;9.60;94.70;;;;;;5042094;28;20553;-69
2022/09/19 02:54:10;;;;;;;6.50;2.75;;;9.70;95.00;;;;;;5038995;28;20459;-68
2022/09/19 02:56:40;;;;;;;9.70;2.70;;;9.70;94.70;;;;;;5042650;28;20423;-68
2022/09/19 02:59:12;;;;;;;10.45;2.75;;;9.70;94.40;;;;;;5044576;28;20433;-68
2022/09/19 03:01:44;;;;;;;9.05;3.20;;;9.60;94.60;;;;;;5042885;28;20436;-68
2022/09/19 03:04:14;;;;;;;7.63;3.50;;;9.70;94.50;;;;;;5067975;28;20423;-68
2022/09/19 03:06:48;;;;;;;5.30;2.53;;;9.70;94.50;;;;;;5052122;28;20417;-68
2022/09/19 03:09:21;;;;;;;5.72;2.45;;;9.70;94.50;;;;;;5046223;28;20453;-68
2022/09/19 03:11:54;;;;;;;7.75;2.50;;;9.70;94.10;;;;;;5047918;28;20452;-68
2022/09/19 03:14:21;;;;;;;6.43;2.80;;;9.70;94.20;;;;;;5034319;28;20485;-69
2022/09/19 03:16:56;;;;;;;7.95;3.30;;;9.60;94.20;;;;;;5045142;28;20440;-68
2022/09/19 03:19:24;;;;;;;8.07;3.25;;;9.60;94.50;;;;;;5045625;28;20516;-68
2022/09/19 03:21:53;;;;;;;7.40;2.65;;;9.60;94.60;;;;;;5047322;28;20425;-68
2022/09/19 03:24:20;;;;;;;7.40;3.10;;;9.50;94.50;;;;;;5044656;28;20913;-68
2022/09/19 03:26:47;;;;;;;10.35;3.97;;;9.50;94.60;;;;;;5041242;28;20451;-69
2022/09/19 03:29:15;;;;;;;9.65;3.65;;;9.50;94.70;;;;;;5046204;28;20432;-68
2022/09/19 03:31:42;;;;;;;10.93;5.30;;;9.50;94.70;;;;;;5046021;28;20420;-69
2022/09/19 03:34:10;;;;;;;8.27;2.90;;;9.60;94.70;;;;;;5046743;28;20424;-68
2022/09/19 03:36:37;;;;;;;8.30;4.00;;;9.60;94.60;;;;;;5047345;28;20504;-69
2022/09/19 03:39:04;;;;;;;7.28;3.05;;;9.50;94.70;;;;;;5045177;28;20434;-69
2022/09/19 03:41:32;;;;;;;7.43;3.00;;;9.50;94.80;;;;;;5044902;28;20835;-69
2022/09/19 03:44:01;;;;;;;4.85;2.70;;;9.50;95.00;;;;;;5046951;28;20519;-68
2022/09/19 03:46:30;;;;;;;6.57;3.03;;;9.50;94.90;;;;;;5046833;28;20475;-69
2022/09/19 03:48:57;;;;;;;6.47;3.10;;;9.50;94.80;;;;;;5046287;28;20479;-68
2022/09/19 03:51:25;;;;;;;6.65;2.80;;;9.60;94.60;;;;;;5045849;28;20424;-67
2022/09/19 03:53:53;;;;;;;7.80;3.47;;;9.60;94.60;;;;;;5045823;28;20460;-68
2022/09/19 03:56:19;;;;;;;8.98;3.30;;;9.60;94.50;;;;;;5044213;28;20445;-69
2022/09/19 03:58:46;;;;;;;9.27;3.15;;;9.60;94.30;;;;;;5045984;28;20920;-68
2022/09/19 04:01:15;;;;;;;10.52;3.20;;;9.60;94.30;;;;;;5044585;28;20437;-68
2022/09/19 04:03:42;;;;;;;5.43;2.90;;;9.70;94.30;;;;;;5038489;28;20429;-67
2022/09/19 04:06:10;;;;;;;8.43;3.10;;;9.70;94.30;;;;;;5047262;28;20440;-68
2022/09/19 04:08:38;;;;;;;6.75;3.10;;;9.80;94.20;;;;;;5048243;28;20758;-68
2022/09/19 04:11:06;;;;;;;6.50;3.33;;;9.80;93.80;;;;;;5045304;28;20895;-68
2022/09/19 04:13:33;;;;;;;6.85;2.80;;;9.80;93.90;;;;;;5036859;28;20418;-68
2022/09/19 04:16:00;;;;;;;5.93;2.53;;;9.80;93.90;;;;;;5045715;28;20429;-69
2022/09/19 04:18:27;;;;;;;7.82;3.10;;;9.80;93.80;;;;;;5045324;28;20429;-68
2022/09/19 04:20:54;;;;;;;9.85;3.45;;;9.90;93.50;;;;;;5042532;28;20426;-68
2022/09/19 04:23:20;;;;;;;7.55;3.00;;;9.90;93.60;;;;;;5051485;28;20442;-68
2022/09/19 04:25:48;;;;;;;9.45;3.20;;;9.90;93.50;;;;;;5036862;28;20815;-68
2022/09/19 04:28:17;;;;;;;5.13;2.65;;;10.00;93.10;;;;;;5041300;28;20422;-68
2022/09/19 04:30:44;;;;;;;9.45;2.78;;;10.00;93.10;;;;;;5045024;28;20429;-68
2022/09/19 04:33:13;;;;;;;6.33;3.23;;;10.00;93.00;;;;;;5044557;28;20444;-69
2022/09/19 04:35:41;;;;;;;6.75;3.08;;;10.00;92.90;;;;;;5044746;28;20440;-68
2022/09/19 04:38:11;;;;;;;6.18;2.83;;;10.00;93.00;;;;;;5046053;28;20433;-71
2022/09/19 04:40:39;;;;;;;7.38;3.10;;;10.10;93.00;;;;;;5046054;28;20423;-68
2022/09/19 04:43:08;;;;;;;7.50;3.03;;;10.10;92.80;;;;;;5045961;28;20429;-68
2022/09/19 04:45:36;;;;;;;13.70;3.40;;;10.10;92.70;;;;;;5047444;28;20420;-69
2022/09/19 04:48:04;;;;;;;6.03;2.60;;;10.10;92.70;;;;;;5052801;28;20809;-71
2022/09/19 04:50:31;;;;;;;6.00;2.83;;;10.10;92.70;;;;;;5042551;28;20431;-68
2022/09/19 04:52:58;;;;;;;6.47;3.08;;;10.10;92.70;;;;;;5048130;28;20445;-68
2022/09/19 04:55:25;;;;;;;9.10;3.05;;;10.10;92.40;;;;;;5045600;28;20417;-68
2022/09/19 04:57:52;;;;;;;7.20;2.90;;;10.10;92.40;;;;;;5042995;28;20437;-69
2022/09/19 05:00:37;;;;;;;7.60;3.03;;;10.20;92.50;;;;;;5044688;28;20470;-69
2022/09/19 05:03:06;;;;;;;6.40;2.97;;;10.10;92.70;;;;;;5040042;28;20863;-68
2022/09/19 05:05:33;;;;;;;8.25;3.25;;;10.10;92.40;;;;;;5047201;28;20784;-68
2022/09/19 05:08:00;;;;;;;5.53;2.60;;;10.10;92.40;;;;;;5033832;28;20845;-70
2022/09/19 05:10:27;;;;;;;8.10;3.20;;;10.10;92.50;;;;;;5043642;28;20528;-68
2022/09/19 05:12:54;;;;;;;6.17;2.90;;;10.10;92.30;;;;;;5046168;28;20753;-68
2022/09/19 05:15:24;;;;;;;7.15;3.10;;;10.10;92.40;;;;;;5047784;28;20432;-68
2022/09/19 05:17:52;;;;;;;5.50;3.00;;;10.00;92.50;;;;;;5058360;28;21020;-69
2022/09/19 05:20:19;;;;;;;7.57;3.45;;;10.00;92.60;;;;;;5075168;22;20439;-69
2022/09/19 05:22:46;;;;;;;6.90;3.40;;;10.00;92.50;;;;;;5049351;28;20432;-69
2022/09/19 05:25:15;;;;;;;8.82;3.17;;;10.00;92.50;;;;;;5055280;28;20469;-69
2022/09/19 05:27:42;;;;;;;7.00;2.63;;;10.00;92.50;;;;;;5060207;28;21042;-68
2022/09/19 05:30:10;;;;;;;8.48;2.97;;;10.00;92.50;;;;;;5066335;28;20948;-69
2022/09/19 05:32:39;;;;;;;8.40;3.75;;;10.00;92.70;;;;;;5055522;28;20417;-70
2022/09/19 05:35:07;;;;;;;8.07;3.20;;;10.00;92.70;;;;;;5063426;28;20783;-68
2022/09/19 05:37:34;;;;;;;6.30;2.80;;;10.10;92.60;;;;;;5057510;28;20438;-69
2022/09/19 05:40:01;;;;;;;6.15;2.60;;;10.20;92.30;;;;;;5063769;28;20894;-70
2022/09/19 05:42:28;;;;;;;7.27;2.60;;;10.20;92.40;;;;;;5064721;28;20517;-70
2022/09/19 05:44:55;;;;;;;8.20;2.90;;;10.20;92.70;;;;;;5066950;28;20430;-69
2022/09/19 05:47:21;;;;;;;9.20;3.17;;;10.20;92.80;;;;;;5066511;28;20523;-69
2022/09/19 05:49:49;;;;;;;8.70;3.05;;;10.20;92.80;;;;;;5062943;28;20922;-69
2022/09/19 05:54:59;;;;;;;8.45;3.50;;;10.20;92.90;;;;;;5028404;28;20401;-70
2022/09/19 05:57:27;;;;;;;8.95;2.90;;;10.20;92.90;;;;;;5060590;28;20424;-68
2022/09/19 05:59:54;;;;;;;9.02;3.45;;;10.30;92.80;;;;;;5065881;28;20427;-69
2022/09/19 06:02:21;;;;;;;7.28;3.25;;;10.40;92.40;;;;;;5061886;28;20427;-69
2022/09/19 06:04:49;;;;;;;9.20;3.20;;;10.40;92.30;;;;;;5066904;28;20423;-68
2022/09/19 06:07:16;;;;;;;8.60;3.40;;;10.50;92.20;;;;;;5056180;28;20456;-67
2022/09/19 06:09:43;;;;;;;7.50;3.40;;;10.50;92.10;;;;;;5060309;28;20423;-68
2022/09/19 06:12:10;;;;;;;8.07;3.60;;;10.50;92.20;;;;;;5065705;28;20424;-68
2022/09/19 06:14:38;;;;;;;8.50;3.70;;;10.60;92.20;;;;;;5066429;28;20456;-68
2022/09/19 06:17:05;;;;;;;7.25;3.03;;;10.60;92.20;;;;;;5066098;28;20455;-67
2022/09/19 06:19:32;;;;;;;11.57;6.65;;;10.70;92.30;;;;;;5065822;28;20496;-68
2022/09/19 06:22:01;;;;;;;6.93;3.88;;;10.70;92.20;;;;;;5060562;28;20430;-68
2022/09/19 06:24:28;;;;;;;6.45;2.90;;;10.80;92.40;;;;;;5057818;28;20940;-68
2022/09/19 06:26:55;;;;;;;8.35;3.80;;;10.80;92.10;;;;;;5063444;28;20419;-68
2022/09/19 06:29:21;;;;;;;9.33;3.27;;;10.90;91.80;;;;;;5066404;28;20510;-69
2022/09/19 06:31:48;;;;;;;8.05;2.50;;;10.90;91.60;;;;;;5066205;28;21069;-67
2022/09/19 06:34:15;;;;;;;7.97;2.88;;;11.00;91.60;;;;;;5069744;28;20836;-69
2022/09/19 06:36:44;;;;;;;7.90;2.90;;;11.10;91.70;;;;;;5065942;28;20942;-69
2022/09/19 06:39:12;;;;;;;10.63;3.47;;;11.10;91.40;;;;;;5066276;28;20442;-67
2022/09/19 06:41:39;;;;;;;9.27;2.90;;;11.20;91.20;;;;;;5067361;28;20416;-68
2022/09/19 06:44:07;;;;;;;9.25;3.40;;;11.20;91.30;;;;;;5069748;28;20940;-68
2022/09/19 06:46:37;;;;;;;6.82;2.67;;;11.30;91.00;;;;;;5070297;28;20454;-68
2022/09/19 06:49:03;;;;;;;7.78;3.10;;;11.30;90.50;;;;;;5068949;28;20845;-69
2022/09/19 06:51:30;;;;;;;9.67;2.53;;;11.40;90.50;;;;;;5058398;28;20444;-68
2022/09/19 06:53:57;;;;;;;6.97;2.33;;;11.40;90.70;;;;;;5067561;28;20416;-69
2022/09/19 06:56:25;;;;;;;7.43;2.67;;;11.50;90.90;;;;;;5069391;28;20411;-68
2022/09/19 06:58:52;;;;;;;7.00;2.97;;;11.60;90.90;;;;;;5064310;28;20425;-68
2022/09/19 07:01:18;;;;;;;6.93;2.70;;;11.60;90.40;;;;;;5069021;28;20796;-69
2022/09/19 07:03:45;;;;;;;8.05;3.22;;;11.70;90.00;;;;;;5067175;28;20431;-68
2022/09/19 07:06:12;;;;;;;7.53;2.67;;;11.80;89.90;;;;;;5061009;28;20424;-68
2022/09/19 07:08:39;;;;;;;5.22;2.33;;;11.80;89.60;;;;;;5060658;28;20903;-68
2022/09/19 07:11:06;;;;;;;9.10;2.80;;;11.90;88.90;;;;;;5068475;28;20415;-69
2022/09/19 07:13:34;;;;;;;6.10;2.80;;;11.90;88.80;;;;;;5069358;28;20415;-68
2022/09/19 07:16:02;;;;;;;7.20;2.70;;;11.90;88.40;;;;;;5069943;28;20416;-68
2022/09/19 07:18:29;;;;;;;7.82;3.40;;;12.00;89.10;;;;;;5063775;28;20439;-69
2022/09/19 07:20:56;;;;;;;7.35;2.78;;;12.00;88.90;;;;;;5062706;28;20421;-69
2022/09/19 07:23:22;;;;;;;7.03;2.65;;;12.00;89.70;;;;;;5060138;28;20437;-68
2022/09/19 07:25:49;;;;;;;9.00;2.75;;;12.00;89.90;;;;;;5069388;28;20502;-69
2022/09/19 07:28:19;;;;;;;7.05;2.70;;;12.10;89.80;;;;;;5069027;28;20419;-69
2022/09/19 07:30:48;;;;;;;7.68;3.00;;;12.20;89.30;;;;;;5067677;28;20427;-69
2022/09/19 07:33:16;;;;;;;5.97;3.10;;;12.30;89.20;;;;;;5065937;28;20450;-67
2022/09/19 07:35:44;;;;;;;8.20;2.83;;;12.40;87.50;;;;;;5055882;28;20456;-67
2022/09/19 07:38:13;;;;;;;10.07;2.55;;;12.40;87.70;;;;;;5065453;28;20423;-68
2022/09/19 07:40:42;;;;;;;8.48;2.90;;;12.60;87.10;;;;;;5067347;28;20459;-65
2022/09/19 07:43:13;;;;;;;8.52;2.85;;;12.60;87.50;;;;;;5061178;28;20488;-66
2022/09/19 07:45:44;;;;;;;8.50;2.83;;;12.60;88.80;;;;;;5069222;28;20423;-66
2022/09/19 07:48:12;;;;;;;9.20;3.03;;;12.50;88.70;;;;;;5065516;28;20447;-66
2022/09/19 07:50:39;;;;;;;7.60;2.80;;;12.40;89.20;;;;;;5060393;28;21797;-66
2022/09/19 07:53:08;;;;;;;7.15;2.85;;;12.40;90.90;;;;;;5069680;28;20419;-67
2022/09/19 07:55:35;;;;;;;8.75;2.75;;;12.50;91.40;;;;;;5061895;28;20508;-66
2022/09/19 07:58:03;;;;;;;7.20;2.80;;;12.70;90.10;;;;;;5068146;28;20420;-67
2022/09/19 08:00:31;;;;;;;6.25;3.28;;;12.90;90.10;;;;;;5071833;28;20477;-66
2022/09/19 08:03:00;;;;;;;8.50;2.92;;;13.00;89.80;;;;;;5070452;28;20885;-66
2022/09/19 08:05:32;;;;;;;8.85;3.30;;;13.00;86.20;;;;;;5058624;28;20416;-66
2022/09/19 08:07:59;;;;;;;8.40;3.00;;;13.10;87.70;;;;;;5069144;28;20615;-67
2022/09/19 08:10:26;;;;;;;7.40;3.10;;;13.10;87.60;;;;;;5062993;28;20464;-67
2022/09/19 08:12:52;;;;;;;9.50;2.67;;;13.20;87.00;;;;;;5067557;28;20419;-67
2022/09/19 08:15:20;;;;;;;9.02;3.08;;;13.30;84.80;;;;;;5066719;28;20431;-68
2022/09/19 08:17:57;;;;;;;6.50;2.67;;;13.20;85.00;;;;;;5059909;28;20424;-67
2022/09/19 08:20:24;;;;;;;6.22;2.63;;;13.20;86.10;;;;;;5068527;28;20427;-68
2022/09/19 08:22:56;;;;;;;5.28;2.60;;;13.20;86.40;;;;;;5068063;28;20427;-67
2022/09/19 08:25:23;;;;;;;7.45;2.80;;;13.10;87.10;;;;;;5065142;28;20423;-68
2022/09/19 08:27:50;;;;;;;7.07;3.10;;;13.00;89.70;;;;;;5068155;28;20426;-67
2022/09/19 08:30:17;;;;;;;7.75;2.70;;;12.90;90.30;;;;;;5063948;28;21073;-67
2022/09/19 08:32:45;;;;;;;11.25;3.40;;;12.90;89.70;;;;;;5055752;28;20429;-67
2022/09/19 08:35:14;;;;;;;7.90;3.58;;;12.90;90.40;;;;;;5057073;28;20415;-68
2022/09/19 08:37:40;;;;;;;9.27;2.80;;;13.00;91.60;;;;;;5067852;28;20992;-67
2022/09/19 08:40:21;;;;;;;6.72;3.30;;;12.90;91.40;;;;;;5068640;28;20426;-68
2022/09/19 08:43:06;;;;;;;6.38;3.50;;;12.90;91.20;;;;;;5067811;28;20423;-67
2022/09/19 08:45:44;;;;;;;11.85;3.40;;;12.80;91.00;;;;;;5056292;28;20502;-67
2022/09/19 08:48:18;;;;;;;7.38;3.08;;;12.70;91.20;;;;;;5057824;28;20945;-67
2022/09/19 08:50:53;;;;;;;6.50;3.08;;;12.70;91.10;;;;;;5065703;28;20433;-70
2022/09/19 08:53:27;;;;;;;8.88;2.95;;;12.70;91.40;;;;;;5060896;28;20759;-68
2022/09/19 08:56:00;;;;;;;6.03;2.67;;;12.80;91.30;;;;;;5062122;28;20806;-68
2022/09/19 08:58:29;;;;;;;8.80;3.03;;;12.80;90.80;;;;;;5067818;28;20434;-70
2022/09/19 09:00:56;;;;;;;10.07;2.80;;;12.70;91.10;;;;;;5063489;28;20506;-70
2022/09/19 09:03:32;;;;;;;9.77;3.55;;;12.80;90.60;;;;;;5063802;28;20481;-70
2022/09/19 09:06:08;;;;;;;6.88;2.65;;;12.90;90.80;;;;;;5062896;28;20427;-69
2022/09/19 09:08:45;;;;;;;6.78;2.53;;;12.90;90.40;;;;;;5062390;28;20417;-69
2022/09/19 09:11:20;;;;;;;5.88;2.40;;;13.00;90.20;;;;;;5061620;28;20438;-69
2022/09/19 09:13:56;;;;;;;7.07;2.80;;;13.20;89.40;;;;;;5067106;28;20520;-69
2022/09/19 09:16:41;;;;;;;7.68;3.50;;;13.40;88.60;;;;;;5064240;28;20439;-70
2022/09/19 09:19:23;;;;;;;7.75;2.72;;;13.70;88.10;;;;;;5063610;28;20438;-69
2022/09/19 09:21:57;;;;;;;6.40;2.30;;;13.90;87.00;;;;;;5064619;28;20905;-68
2022/09/19 09:24:32;;;;;;;7.28;2.55;;;14.10;85.00;;;;;;5059701;28;20429;-69
2022/09/19 09:27:05;;;;;;;7.70;2.72;;;14.40;84.50;;;;;;5065442;28;20437;-69
2022/09/19 09:29:37;;;;;;;8.80;2.53;;;14.50;83.40;;;;;;5061941;28;20437;-70
2022/09/19 09:32:14;;;;;;;6.93;2.40;;;14.60;81.50;;;;;;5064028;28;20431;-69
2022/09/19 09:34:44;;;;;;;6.60;2.40;;;14.70;81.40;;;;;;5068584;28;20577;-70
2022/09/19 09:37:20;;;;;;;7.40;3.10;;;14.90;82.30;;;;;;5067982;28;20435;-70
2022/09/19 09:40:00;;;;;;;7.15;2.13;;;15.00;79.60;;;;;;5067633;28;20552;-69
2022/09/19 09:42:34;;;;;;;10.07;3.07;;;15.10;78.80;;;;;;5067103;28;20523;-70
2022/09/19 09:45:12;;;;;;;7.63;2.53;;;15.20;77.80;;;;;;5057925;28;20435;-69
2022/09/19 09:47:48;;;;;;;6.00;2.40;;;15.30;77.90;;;;;;5060455;28;20510;-70
2022/09/19 09:50:32;;;;;;;7.13;2.28;;;15.40;79.00;;;;;;5054977;28;20883;-69
2022/09/19 09:53:08;;;;;;;6.35;2.15;;;15.50;75.90;;;;;;5067390;28;20415;-69
2022/09/19 09:58:37;;;;;;;6.10;2.20;;;15.50;75.90;;;;;;5059543;28;21192;-69
2022/09/19 10:04:12;;;;;;;5.30;2.40;;;15.60;78.00;;;;;;5063665;28;20423;-70
2022/09/19 10:06:42;;;;;;;6.93;2.75;;;15.70;77.20;;;;;;5068440;28;20473;-70
2022/09/19 10:09:14;;;;;;;7.63;2.50;;;15.90;76.50;;;;;;5072726;28;20451;-69
2022/09/19 10:11:45;;;;;;;6.23;2.33;;;16.00;76.00;;;;;;5088337;28;20431;-69
2022/09/19 10:14:19;;;;;;;7.10;2.80;;;16.10;73.70;;;;;;5075586;28;20519;-71
2022/09/19 10:16:48;;;;;;;9.40;2.33;;;16.20;72.70;;;;;;5066721;28;20439;-68
2022/09/19 10:19:25;;;;;;;5.72;2.20;;;16.20;73.20;;;;;;5077792;28;20435;-69
2022/09/19 10:21:52;;;;;;;6.95;3.20;;;16.60;73.30;;;;;;5076921;28;20468;-70
2022/09/19 10:24:46;;;;;;;7.95;3.00;;;16.90;71.70;;;;;;5071466;28;20514;-69
2022/09/19 10:27:15;;;;;;;6.15;2.28;;;17.10;67.70;;;;;;5073065;28;20442;-69
2022/09/19 10:29:57;;;;;;;7.43;2.20;;;17.20;67.70;;;;;;5068552;28;20438;-72
2022/09/19 10:32:26;;;;;;;8.75;2.20;;;17.00;68.30;;;;;;5074503;28;20414;-69
2022/09/19 10:34:53;;;;;;;5.03;2.00;;;17.00;69.50;;;;;;5068694;28;21019;-69
2022/09/19 10:37:22;;;;;;;6.97;2.40;;;17.10;69.60;;;;;;5074418;28;20788;-68
2022/09/19 10:39:50;;;;;;;6.10;2.08;;;17.20;68.20;;;;;;5072079;28;20788;-70
2022/09/19 10:42:30;;;;;;;6.22;2.20;;;17.30;68.10;;;;;;5071390;28;20490;-69
2022/09/19 10:45:00;;;;;;;4.82;1.92;;;17.40;66.30;;;;;;5064049;28;20530;-69
2022/09/19 10:47:28;;;;;;;6.63;2.35;;;17.40;66.10;;;;;;5068619;28;20513;-71
2022/09/19 10:50:02;;;;;;;6.60;2.30;;;17.50;67.00;;;;;;5069426;28;20455;-69
2022/09/19 10:52:33;;;;;;;6.13;2.25;;;17.40;65.80;;;;;;5071318;28;20423;-69
2022/09/19 10:55:06;;;;;;;5.80;2.30;;;17.40;66.30;;;;;;5070675;28;20437;-70
2022/09/19 10:57:44;;;;;;;5.80;2.23;;;17.60;66.10;;;;;;5072210;28;20420;-68
2022/09/19 11:00:23;;;;;;;5.05;2.15;;;17.80;65.30;;;;;;5059908;28;21077;-69
2022/09/19 11:02:56;;;;;;;6.63;2.20;;;17.90;63.60;;;;;;5065013;28;20415;-70
2022/09/19 11:05:26;;;;;;;8.45;2.78;;;17.60;65.70;;;;;;5071234;28;20427;-70
2022/09/19 11:07:55;;;;;;;4.82;2.30;;;17.80;64.10;;;;;;5053066;28;20417;-69
2022/09/19 11:10:37;;;;;;;4.63;1.90;;;18.00;63.90;;;;;;5052828;28;20413;-69
2022/09/19 11:13:13;;;;;;;4.68;1.90;;;18.30;61.60;;;;;;5082938;28;20416;-69
2022/09/19 11:15:58;;;;;;;5.67;2.20;;;18.50;61.60;;;;;;5088408;28;20414;-69
2022/09/19 11:18:38;;;;;;;4.00;1.90;;;19.00;60.60;;;;;;5096763;28;20404;-68
2022/09/19 11:21:12;;;;;;;4.10;1.95;;;19.10;57.20;;;;;;5084648;28;20404;-68
2022/09/19 11:23:56;;;;;;;6.18;2.00;;;19.00;57.10;;;;;;5088824;28;20489;-70
2022/09/19 11:26:35;;;;;;;6.10;1.77;;;18.90;58.10;;;;;;5089873;28;20412;-68
2022/09/19 11:29:14;;;;;;;6.00;1.90;;;18.80;58.60;;;;;;5094827;28;20475;-68
2022/09/19 11:31:47;;;;;;;5.80;1.90;;;18.70;58.20;;;;;;5088054;28;21019;-69
2022/09/19 11:34:23;;;;;;;3.20;1.50;;;18.80;65.60;;;;;;5076524;28;20423;-70
2022/09/19 11:37:03;;;;;;;4.53;2.63;;;18.80;66.70;;;;;;5069210;28;20856;-69
2022/09/19 11:39:47;;;;;;;4.35;1.88;;;18.70;71.50;;;;;;5071512;28;20438;-69
2022/09/19 11:42:29;;;;;;;3.83;1.60;;;18.70;69.60;;;;;;5058199;28;20434;-69
2022/09/19 11:45:11;;;;;;;3.57;1.73;;;19.10;63.00;;;;;;5065563;28;20428;-70
2022/09/19 11:48:11;;;;;;;3.17;1.45;;;19.30;64.00;;;;;;5054557;28;20867;-71
2022/09/19 11:50:59;;;;;;;5.30;1.60;;;19.30;62.90;;;;;;5057006;28;20434;-72
2022/09/19 11:53:43;;;;;;;3.33;1.40;;;19.20;61.90;;;;;;5072345;28;20499;-70
2022/09/19 11:56:36;;;;;;;3.70;1.42;;;18.90;60.00;;;;;;5071238;28;20420;-70
2022/09/19 11:59:17;;;;;;;3.53;1.48;;;18.60;61.00;;;;;;5070615;28;20469;-70
2022/09/19 12:01:54;;;;;;;3.40;1.60;;;18.30;60.80;;;;;;5071503;28;20431;-71
2022/09/19 12:04:35;;;;;;;3.00;1.40;;;18.00;60.90;;;;;;5081700;28;20937;-70
2022/09/19 12:07:21;;;;;;;4.70;1.75;;;17.80;62.60;;;;;;5091474;28;20475;-70
2022/09/19 12:09:52;;;;;;;4.30;1.70;;;17.80;60.50;;;;;;5076908;28;20420;-67
2022/09/19 12:12:22;;;;;;;4.50;1.80;;;17.90;58.80;;;;;;5078528;28;20428;-68
2022/09/19 12:14:52;;;;;;;3.13;1.58;;;18.20;57.20;;;;;;5062141;28;20425;-69
2022/09/19 12:17:23;;;;;;;3.85;1.30;;;18.50;56.10;;;;;;5066264;28;20909;-70
2022/09/19 12:19:59;;;;;;;4.55;1.70;;;18.40;55.40;;;;;;5073322;28;20419;-68
2022/09/19 12:22:30;;;;;;;3.92;1.70;;;18.60;55.40;;;;;;5069966;28;20451;-70
2022/09/19 12:25:08;;;;;;;5.22;2.10;;;18.90;55.70;;;;;;5070418;28;20431;-70
2022/09/19 12:27:40;;;;;;;5.28;1.60;;;19.70;54.20;;;;;;5072516;28;20481;-69
2022/09/19 12:30:14;;;;;;;4.88;1.50;;;20.10;50.90;;;;;;5085883;28;20424;-69
2022/09/19 12:32:48;;;;;;;3.97;1.60;;;19.80;50.30;;;;;;5089204;28;20418;-68
2022/09/19 12:35:22;;;;;;;5.20;1.60;;;19.40;49.90;;;;;;5082460;28;20767;-71
2022/09/19 12:38:00;;;;;;;5.22;1.60;;;19.10;51.10;;;;;;5055116;28;20636;-68
2022/09/19 12:40:42;;;;;;;5.07;1.67;;;19.40;48.90;;;;;;5065522;28;20944;-69
2022/09/19 12:43:19;;;;;;;5.60;1.70;;;19.50;49.60;;;;;;5067417;28;20438;-70
2022/09/19 12:45:55;;;;;;;4.28;1.70;;;19.40;49.90;;;;;;5064399;28;20504;-70
2022/09/19 12:48:31;;;;;;;5.07;1.65;;;19.20;50.80;;;;;;5069007;28;20835;-71
2022/09/19 12:51:02;;;;;;;4.38;2.20;;;19.00;52.40;;;;;;5068952;28;20427;-72
2022/09/19 12:53:33;;;;;;;3.40;1.30;;;18.70;56.50;;;;;;5067731;28;20435;-71
2022/09/19 12:56:04;;;;;;;3.70;1.80;;;18.10;58.90;;;;;;5059884;28;21051;-72
2022/09/19 12:58:53;;;;;;;3.38;1.00;;;17.50;62.50;;;;;;5065419;28;20450;-71
2022/09/19 13:01:24;;;;;;;3.40;1.00;;;17.00;66.00;;;;;;5065575;28;20936;-71
2022/09/19 13:03:58;;;;;;;2.50;1.20;;;16.50;69.40;;;;;;5061803;28;20959;-71
2022/09/19 13:06:30;;;;;;;2.90;1.10;;;16.20;71.60;;;;;;5062183;28;20467;-71
2022/09/19 13:09:03;;;;;;;1.80;0.90;;;15.90;72.90;;;;;;5058036;28;20457;-72
2022/09/19 13:11:37;;;;;;;2.25;1.08;;;15.70;74.50;;;;;;5064622;28;20434;-69
2022/09/19 13:14:11;;;;;;;2.17;1.00;;;15.40;76.00;;;;;;5059086;28;20901;-71
2022/09/19 13:23:29;;;;;;;2.92;1.65;;;15.20;77.90;;;;;;5056925;28;20927;-70
2022/09/19 13:25:07;;;;;;;1.92;1.00;;;14.90;78.80;;;;;;5063803;28;20528;-72
2022/09/19 13:27:33;;;;;;;5.15;3.88;;;14.80;78.50;;;;;;5062629;28;20423;-71
2022/09/19 13:30:02;;;;;;;2.70;1.52;;;14.70;77.20;;;;;;5068229;28;20411;-72